createdAt,value
2023-04-20T00:01:39.189Z,14.77
2023-04-20T00:04:06.464Z,15.67
2023-04-20T00:06:58.070Z,15.33
2023-04-20T00:09:25.421Z,15.37
2023-04-20T00:11:52.770Z,14.50
2023-04-20T00:18:07.574Z,15.90
2023-04-20T00:20:55.529Z,15.23
2023-04-20T00:23:32.233Z,14.93
2023-04-20T00:26:02.186Z,15.37
2023-04-20T00:28:55.794Z,15.77
2023-04-20T00:31:25.858Z,15.73
2023-04-20T00:33:53.075Z,15.47
2023-04-20T00:36:20.372Z,16.40
2023-04-20T00:38:47.541Z,16.37
2023-04-20T00:41:17.681Z,16.30
2023-04-20T00:43:54.513Z,16.53
2023-04-20T00:46:22.277Z,16.13
2023-04-20T00:48:52.462Z,16.87
2023-04-20T00:51:23.522Z,16.57
2023-04-20T00:53:50.774Z,16.23
2023-04-20T00:56:19.242Z,15.70
2023-04-20T00:58:47.026Z,16.07
2023-04-20T01:01:17.672Z,16.37
2023-04-20T01:03:45.825Z,17.00
2023-04-20T01:06:16.489Z,15.83
2023-04-20T01:08:50.619Z,16.93
2023-04-20T01:11:18.229Z,17.07
2023-04-20T01:13:45.532Z,18.67
2023-04-20T01:16:13.264Z,17.57
2023-04-20T01:18:44.546Z,18.53
2023-04-20T01:21:12.481Z,19.87
2023-04-20T01:23:39.601Z,17.93
2023-04-20T01:26:07.928Z,17.77
2023-04-20T01:28:35.209Z,18.37
2023-04-20T01:31:03.457Z,18.50
2023-04-20T01:33:30.757Z,19.37
2023-04-20T01:35:57.929Z,20.67
2023-04-20T01:38:26.093Z,20.40
2023-04-20T01:40:53.628Z,20.53
2023-04-20T01:43:21.144Z,20.60
2023-04-20T01:45:48.364Z,20.60
2023-04-20T01:48:15.807Z,20.97
2023-04-20T01:50:43.007Z,20.43
2023-04-20T01:53:10.588Z,20.90
2023-04-20T01:55:37.777Z,20.87
2023-04-20T01:58:05.115Z,22.20
2023-04-20T02:00:32.290Z,20.80
2023-04-20T02:02:59.592Z,20.80
2023-04-20T02:05:27.077Z,22.07
2023-04-20T02:07:54.202Z,21.80
2023-04-20T02:10:21.389Z,21.17
2023-04-20T02:12:49.731Z,21.67
2023-04-20T02:15:16.924Z,21.60
2023-04-20T02:17:44.356Z,22.57
2023-04-20T02:20:12.644Z,23.23
2023-04-20T02:22:39.876Z,22.90
2023-04-20T02:25:07.766Z,23.07
2023-04-20T02:27:34.938Z,22.73
2023-04-20T02:30:02.123Z,22.23
2023-04-20T02:32:29.559Z,21.50
2023-04-20T02:34:56.836Z,22.30
2023-04-20T02:37:23.964Z,22.80
2023-04-20T02:39:51.200Z,22.23
2023-04-20T02:42:18.567Z,23.03
2023-04-20T02:44:45.805Z,23.33
2023-04-20T02:47:13.093Z,21.97
2023-04-20T02:49:40.260Z,22.70
2023-04-20T02:52:07.440Z,20.80
2023-04-20T02:54:34.714Z,20.63
2023-04-20T02:57:03.422Z,21.07
2023-04-20T02:59:30.632Z,21.67
2023-04-20T03:01:57.903Z,20.93
2023-04-20T03:04:26.189Z,20.93
2023-04-20T03:06:53.758Z,21.63
2023-04-20T03:09:21.416Z,21.83
2023-04-20T03:11:48.772Z,21.57
2023-04-20T03:14:16.160Z,21.93
2023-04-20T03:16:43.930Z,21.03
2023-04-20T03:19:11.187Z,22.37
2023-04-20T03:21:38.429Z,21.97
2023-04-20T03:24:07.187Z,21.03
2023-04-20T03:26:34.325Z,22.73
2023-04-20T03:29:01.961Z,20.53
2023-04-20T03:31:29.169Z,21.80
2023-04-20T03:33:56.620Z,21.57
2023-04-20T03:36:24.023Z,20.83
2023-04-20T03:38:51.176Z,21.43
2023-04-20T03:41:18.388Z,20.97
2023-04-20T03:43:45.653Z,22.10
2023-04-20T03:46:12.974Z,21.57
2023-04-20T03:48:40.586Z,22.13
2023-04-20T03:51:07.809Z,22.80
2023-04-20T03:53:34.956Z,21.73
2023-04-20T03:56:02.201Z,21.03
2023-04-20T03:58:29.379Z,22.13
2023-04-20T04:01:09.594Z,21.93
2023-04-20T04:03:37.329Z,20.87
2023-04-20T04:06:05.076Z,21.77
2023-04-20T04:08:32.506Z,22.47
2023-04-20T04:11:00.686Z,21.93
2023-04-20T04:13:27.993Z,21.90
2023-04-20T04:15:55.202Z,21.00
2023-04-20T04:18:22.997Z,21.50
2023-04-20T04:20:50.247Z,21.00
2023-04-20T04:23:17.728Z,22.47
2023-04-20T04:25:46.218Z,21.73
2023-04-20T04:28:14.838Z,22.27
2023-04-20T04:30:42.271Z,23.03
2023-04-20T04:33:10.230Z,21.63
2023-04-20T04:35:37.968Z,21.90
2023-04-20T04:38:05.295Z,21.77
2023-04-20T04:40:33.791Z,21.43
2023-04-20T04:43:01.207Z,23.43
2023-04-20T04:45:28.518Z,22.57
2023-04-20T04:51:27.905Z,22.23
2023-04-20T04:53:57.443Z,22.80
2023-04-20T04:56:24.842Z,21.97
2023-04-20T04:58:57.045Z,22.57
2023-04-20T05:01:27.777Z,22.77
2023-04-20T05:04:15.997Z,22.93
2023-04-20T05:07:00.014Z,22.93
2023-04-20T05:10:08.735Z,23.67
2023-04-20T05:12:32.279Z,22.37
2023-04-20T05:15:06.013Z,23.63
2023-04-20T05:17:49.042Z,24.47
2023-04-20T05:20:34.219Z,23.43
2023-04-20T05:23:01.776Z,23.77
2023-04-20T05:25:35.673Z,22.70
2023-04-20T05:28:28.509Z,25.27
2023-04-20T05:30:59.097Z,23.50
2023-04-20T05:33:26.341Z,24.77
2023-04-20T05:36:06.040Z,25.50
2023-04-20T05:38:33.307Z,24.47
2023-04-20T05:41:02.478Z,25.87
2023-04-20T05:43:47.718Z,25.80
2023-04-20T05:46:14.916Z,24.30
2023-04-20T05:48:48.395Z,25.70
2023-04-20T05:51:22.574Z,25.03
2023-04-20T06:01:11.639Z,24.17
2023-04-20T06:03:42.129Z,22.83
2023-04-20T06:06:13.646Z,24.03
2023-04-20T06:08:46.500Z,23.77
2023-04-20T06:11:32.007Z,25.57
2023-04-20T06:14:07.598Z,23.43
2023-04-20T06:16:34.915Z,24.97
2023-04-20T06:19:04.599Z,23.73
2023-04-20T06:21:34.191Z,23.90
2023-04-20T06:24:11.732Z,22.17
2023-04-20T06:26:39.387Z,22.20
2023-04-20T06:29:06.925Z,21.90
2023-04-20T06:31:34.499Z,22.10
2023-04-20T06:34:02.586Z,21.60
2023-04-20T06:36:47.451Z,20.60
2023-04-20T06:41:58.598Z,20.47
2023-04-20T06:44:59.600Z,20.90
2023-04-20T06:47:33.801Z,21.90
2023-04-20T06:50:11.104Z,21.07
2023-04-20T06:52:47.919Z,20.53
2023-04-20T07:09:56.011Z,18.90
2023-04-20T07:15:14.005Z,17.67
2023-04-20T07:27:08.993Z,17.77
2023-04-20T07:30:04.233Z,17.87
2023-04-20T07:32:36.310Z,17.10
2023-04-20T07:35:04.080Z,17.58
2023-04-20T07:37:32.439Z,16.23
2023-04-20T07:43:12.679Z,15.55
2023-04-20T07:45:49.379Z,13.75
2023-04-20T07:48:17.926Z,13.87
2023-04-20T07:50:46.445Z,13.93
2023-04-20T07:53:36.020Z,13.65
2023-04-20T07:56:11.801Z,13.95
2023-04-20T07:59:15.949Z,12.15
2023-04-20T08:05:14.987Z,11.88
2023-04-20T08:07:45.765Z,11.50
2023-04-20T08:10:13.291Z,11.75
2023-04-20T08:12:52.018Z,12.18
2023-04-20T08:15:33.789Z,10.80
2023-04-20T08:18:01.364Z,10.82
2023-04-20T08:20:28.915Z,11.15
2023-04-20T08:23:11.351Z,10.85
2023-04-20T08:25:43.196Z,11.95
2023-04-20T08:28:15.740Z,11.88
2023-04-20T08:30:59.699Z,11.45
2023-04-20T08:33:42.429Z,10.68
2023-04-20T08:36:19.806Z,10.10
2023-04-20T08:38:58.749Z,10.73
2023-04-20T08:41:26.678Z,9.80
2023-04-20T08:43:53.837Z,9.77
2023-04-20T08:46:26.316Z,9.90
2023-04-20T08:48:55.915Z,10.23
2023-04-20T08:51:32.640Z,10.25
2023-04-20T08:54:06.892Z,10.88
2023-04-20T08:56:38.010Z,9.38
2023-04-20T08:59:05.800Z,9.38
2023-04-20T09:01:41.944Z,9.55
2023-04-20T09:04:23.161Z,9.52
2023-04-20T09:06:57.751Z,9.38
2023-04-20T09:09:27.058Z,9.35
2023-04-20T09:12:02.498Z,9.02
2023-04-20T09:14:30.155Z,8.38
2023-04-20T09:17:02.094Z,8.80
2023-04-20T09:19:30.731Z,8.90
2023-04-20T09:22:03.953Z,8.65
2023-04-20T09:24:35.239Z,9.45
2023-04-20T09:27:03.525Z,8.80
2023-04-20T09:29:31.328Z,8.18
2023-04-20T09:31:58.652Z,7.80
2023-04-20T09:34:26.670Z,7.55
2023-04-20T09:36:57.566Z,7.90
2023-04-20T09:39:25.212Z,8.63
2023-04-20T09:41:53.451Z,8.20
2023-04-20T09:44:21.252Z,8.48
2023-04-20T09:46:48.444Z,8.73
2023-04-20T09:49:15.825Z,8.90
2023-04-20T09:51:47.071Z,8.20
2023-04-20T09:54:16.092Z,7.97
2023-04-20T09:56:43.634Z,8.18
2023-04-20T09:59:10.873Z,8.05
2023-04-20T10:01:38.470Z,7.60
2023-04-20T10:04:14.617Z,8.25
2023-04-20T10:06:52.759Z,7.68
2023-04-20T10:09:24.660Z,7.85
2023-04-20T10:11:54.557Z,7.68
2023-04-20T10:14:26.453Z,6.53
2023-04-20T10:17:01.920Z,6.68
2023-04-20T10:19:42.136Z,7.15
2023-04-20T10:22:11.637Z,7.03
2023-04-20T10:24:39.328Z,7.32
2023-04-20T10:27:22.406Z,7.28
2023-04-20T10:29:49.923Z,7.38
2023-04-20T10:32:27.596Z,6.88
2023-04-20T10:35:05.079Z,7.35
2023-04-20T10:37:32.797Z,7.50
2023-04-20T10:40:00.581Z,7.50
2023-04-20T10:42:29.795Z,8.05
2023-04-20T10:44:57.147Z,7.20
2023-04-20T10:47:28.429Z,7.07
2023-04-20T10:49:55.878Z,7.97
2023-04-20T10:52:36.866Z,7.75
2023-04-20T10:55:04.954Z,8.32
2023-04-20T10:57:32.206Z,7.15
2023-04-20T10:59:59.379Z,7.53
2023-04-20T11:02:28.286Z,5.55
2023-04-20T11:05:00.878Z,5.13
2023-04-20T11:07:28.274Z,6.07
2023-04-20T11:09:58.525Z,4.88
2023-04-20T11:12:25.780Z,5.43
2023-04-20T11:14:54.084Z,5.40
2023-04-20T11:17:21.787Z,5.18
2023-04-20T11:19:49.163Z,4.93
2023-04-20T11:22:25.923Z,5.20
2023-04-20T11:25:05.517Z,4.70
2023-04-20T11:27:32.728Z,4.10
2023-04-20T11:30:00.010Z,4.20
2023-04-20T11:32:27.745Z,4.30
2023-04-20T11:35:06.148Z,3.65
2023-04-20T11:37:34.825Z,3.55
2023-04-20T11:40:03.499Z,3.55
2023-04-20T11:42:30.752Z,3.60
2023-04-20T11:44:57.968Z,3.47
2023-04-20T11:47:25.361Z,3.35
2023-04-20T11:49:52.544Z,3.40
2023-04-20T11:52:19.707Z,4.10
2023-04-20T11:54:46.954Z,3.92
2023-04-20T11:57:14.130Z,4.07
2023-04-20T11:59:43.015Z,3.90
2023-04-20T12:02:11.024Z,4.40
2023-04-20T12:04:39.200Z,3.97
2023-04-20T12:07:06.695Z,3.95
2023-04-20T12:09:38.379Z,4.47
2023-04-20T12:12:06.350Z,4.25
2023-04-20T12:14:33.944Z,4.30
2023-04-20T12:17:02.000Z,4.25
2023-04-20T12:19:29.687Z,3.53
2023-04-20T12:21:57.048Z,3.70
2023-04-20T12:24:24.482Z,3.25
2023-04-20T12:26:54.751Z,3.28
2023-04-20T12:29:22.118Z,3.97
2023-04-20T12:31:49.356Z,3.22
2023-04-20T12:34:17.055Z,3.28
2023-04-20T12:36:44.648Z,2.70
2023-04-20T12:39:11.982Z,3.22
2023-04-20T12:41:39.356Z,3.33
2023-04-20T12:44:15.923Z,3.35
2023-04-20T12:46:43.482Z,3.72
2023-04-20T12:49:12.882Z,3.78
2023-04-20T12:51:40.797Z,4.13
2023-04-20T12:54:08.571Z,4.35
2023-04-20T12:56:35.775Z,4.20
2023-04-20T12:59:03.712Z,4.30
2023-04-20T13:01:31.128Z,4.30
2023-04-20T13:03:58.716Z,4.13
2023-04-20T13:06:26.718Z,3.80
2023-04-20T13:08:54.002Z,3.92
2023-04-20T13:11:22.182Z,3.80
2023-04-20T13:13:49.354Z,4.05
2023-04-20T13:16:16.776Z,4.35
2023-04-20T13:18:44.100Z,3.72
2023-04-20T13:21:11.196Z,4.75
2023-04-20T13:23:39.916Z,4.53
2023-04-20T13:26:08.182Z,3.47
2023-04-20T13:28:35.817Z,4.03
2023-04-20T13:31:03.080Z,4.40
2023-04-20T13:33:30.300Z,4.57
2023-04-20T13:35:57.649Z,3.92
2023-04-20T13:38:24.907Z,4.13
2023-04-20T13:40:52.089Z,4.35
2023-04-20T13:43:21.457Z,4.40
2023-04-20T13:45:49.179Z,4.20
2023-04-20T13:48:16.389Z,4.90
2023-04-20T13:50:43.631Z,3.92
2023-04-20T13:53:10.776Z,3.85
2023-04-20T13:55:38.657Z,4.13
2023-04-20T13:58:05.855Z,3.95
2023-04-20T14:00:34.684Z,4.10
2023-04-20T14:03:02.610Z,3.78
2023-04-20T14:05:30.052Z,3.53
2023-04-20T14:08:01.726Z,3.78
2023-04-20T14:13:32.017Z,4.03
2023-04-20T14:15:59.521Z,4.68
2023-04-20T14:18:26.931Z,3.55
2023-04-20T14:20:54.676Z,3.88
2023-04-20T14:23:21.872Z,3.97
2023-04-20T14:25:49.054Z,3.78
2023-04-20T14:28:17.722Z,4.05
2023-04-20T14:30:51.479Z,3.22
2023-04-20T14:33:18.684Z,3.40
2023-04-20T14:35:46.482Z,3.83
2023-04-20T14:38:13.662Z,3.70
2023-04-20T14:40:41.450Z,3.88
2023-04-20T14:43:08.601Z,4.07
2023-04-20T14:45:35.787Z,3.47
2023-04-20T14:48:03.150Z,4.20
2023-04-20T14:50:31.923Z,3.65
2023-04-20T14:52:59.096Z,4.70
2023-04-20T14:55:26.389Z,3.67
2023-04-20T14:57:55.442Z,3.53
2023-04-20T15:00:28.215Z,4.30
2023-04-20T15:02:56.880Z,3.70
2023-04-20T15:05:25.450Z,3.65
2023-04-20T15:07:52.709Z,4.72
2023-04-20T15:10:20.663Z,3.78
2023-04-20T15:12:48.679Z,4.10
2023-04-20T15:15:16.743Z,4.22
2023-04-20T15:17:43.981Z,4.88
2023-04-20T15:20:11.390Z,4.20
2023-04-20T15:22:38.659Z,4.63
2023-04-20T15:25:06.227Z,3.55
2023-04-20T15:27:33.655Z,3.92
2023-04-20T15:30:01.172Z,4.15
2023-04-20T15:32:30.351Z,3.72
2023-04-20T15:34:57.570Z,3.88
2023-04-20T15:37:25.253Z,3.67
2023-04-20T15:39:52.837Z,4.25
2023-04-20T15:42:19.988Z,4.05
2023-04-20T15:44:47.199Z,3.75
2023-04-20T15:47:14.405Z,4.25
2023-04-20T15:49:42.216Z,4.80
2023-04-20T15:52:09.346Z,3.60
2023-04-20T15:54:37.290Z,3.67
2023-04-20T15:57:04.771Z,3.90
2023-04-20T15:59:32.380Z,4.57
2023-04-20T16:01:59.693Z,3.38
2023-04-20T16:04:27.100Z,3.75
2023-04-20T16:06:54.681Z,3.38
2023-04-20T16:09:23.563Z,3.90
2023-04-20T16:11:51.240Z,3.20
2023-04-20T16:14:18.710Z,3.72
2023-04-20T16:16:46.254Z,4.03
2023-04-20T16:19:14.598Z,4.00
2023-04-20T16:21:42.047Z,4.75
2023-04-20T16:24:09.762Z,5.97
2023-04-20T16:26:36.993Z,5.05
2023-04-20T16:29:04.283Z,4.95
2023-04-20T16:31:31.691Z,4.60
2023-04-20T16:33:59.143Z,4.72
2023-04-20T16:36:27.080Z,4.32
2023-04-20T16:38:54.320Z,4.22
2023-04-20T16:41:21.885Z,4.45
2023-04-20T16:43:49.042Z,4.40
2023-04-20T16:46:22.236Z,4.20
2023-04-20T16:48:50.856Z,4.50
2023-04-20T16:51:18.031Z,3.90
2023-04-20T16:53:45.450Z,4.53
2023-04-20T16:56:12.874Z,4.03
2023-04-20T16:58:40.137Z,3.83
2023-04-20T17:01:08.579Z,3.75
2023-04-20T17:03:36.443Z,3.33
2023-04-20T17:06:07.939Z,5.05
2023-04-20T17:08:35.302Z,4.38
2023-04-20T17:11:02.482Z,4.50
2023-04-20T17:13:29.651Z,4.57
2023-04-20T17:15:56.951Z,3.60
2023-04-20T17:18:24.159Z,4.45
2023-04-20T17:20:52.304Z,4.95
2023-04-20T17:23:20.183Z,5.90
2023-04-20T17:25:47.460Z,6.50
2023-04-20T17:28:15.261Z,7.40
2023-04-20T17:30:42.544Z,6.78
2023-04-20T17:33:12.347Z,6.95
2023-04-20T17:35:39.639Z,8.05
2023-04-20T17:38:06.870Z,9.82
2023-04-20T17:40:34.634Z,9.07
2023-04-20T17:43:02.771Z,7.03
2023-04-20T17:45:30.011Z,7.03
2023-04-20T17:47:57.255Z,6.38
2023-04-20T17:50:24.726Z,4.97
2023-04-20T17:52:52.059Z,4.47
2023-04-20T17:55:19.410Z,4.60
2023-04-20T17:57:46.711Z,4.78
2023-04-20T18:00:14.153Z,8.60
2023-04-20T18:02:41.544Z,11.40
2023-04-20T18:05:09.323Z,7.90
2023-04-20T18:07:36.498Z,7.25
2023-04-20T18:10:04.281Z,6.88
2023-04-20T18:12:31.623Z,6.88
2023-04-20T18:14:58.985Z,5.40
2023-04-20T18:17:26.187Z,5.13
2023-04-20T18:19:53.811Z,4.93
2023-04-20T18:22:20.991Z,5.65
2023-04-20T18:24:48.229Z,6.78
2023-04-20T18:27:15.925Z,6.47
2023-04-20T18:29:52.560Z,7.53
2023-04-20T18:32:21.541Z,8.43
2023-04-20T18:34:51.882Z,7.90
2023-04-20T18:37:19.095Z,7.85
2023-04-20T18:39:46.453Z,7.53
2023-04-20T18:42:13.874Z,10.05
2023-04-20T18:44:41.352Z,9.95
2023-04-20T18:47:08.589Z,10.07
2023-04-20T18:49:36.422Z,11.30
2023-04-20T18:52:03.830Z,10.80
2023-04-20T18:54:31.031Z,9.75
2023-04-20T18:56:58.368Z,8.90
2023-04-20T18:59:25.521Z,8.85
2023-04-20T19:01:52.874Z,9.50
2023-04-20T19:04:22.233Z,8.57
2023-04-20T19:06:49.563Z,8.50
2023-04-20T19:09:16.823Z,9.52
2023-04-20T19:11:43.968Z,8.40
2023-04-20T19:14:11.558Z,7.55
2023-04-20T19:16:38.792Z,8.52
2023-04-20T19:19:06.005Z,7.35
2023-04-20T19:21:33.254Z,6.72
2023-04-20T19:24:00.462Z,7.00
2023-04-20T19:26:27.864Z,8.25
2023-04-20T19:28:56.912Z,8.35
2023-04-20T19:31:24.285Z,8.20
2023-04-20T19:33:51.689Z,9.40
2023-04-20T19:36:19.574Z,8.88
2023-04-20T19:38:46.870Z,8.82
2023-04-20T19:41:14.180Z,8.65
2023-04-20T19:43:41.811Z,8.20
2023-04-20T19:46:09.900Z,6.95
2023-04-20T19:48:37.163Z,6.88
2023-04-20T19:51:05.807Z,8.52
2023-04-20T19:53:33.364Z,7.53
2023-04-20T19:56:00.966Z,8.65
2023-04-20T19:58:28.190Z,8.82
2023-04-20T20:00:55.900Z,8.35
2023-04-20T20:03:27.452Z,8.03
2023-04-20T20:05:54.947Z,7.70
2023-04-20T20:08:22.113Z,8.90
2023-04-20T20:10:49.238Z,9.50
2023-04-20T20:13:16.479Z,10.17
2023-04-20T20:15:44.650Z,10.30
2023-04-20T20:18:12.533Z,10.00
2023-04-20T20:20:40.032Z,10.17
2023-04-20T20:23:07.625Z,10.77
2023-04-20T20:25:35.354Z,10.13
2023-04-20T20:28:09.897Z,10.45
2023-04-20T20:30:37.122Z,9.40
2023-04-20T20:33:04.477Z,10.00
2023-04-20T20:35:33.328Z,9.77
2023-04-20T20:38:00.984Z,10.03
2023-04-20T20:40:28.313Z,9.50
2023-04-20T20:42:55.532Z,8.90
2023-04-20T20:45:23.477Z,9.33
2023-04-20T20:47:51.128Z,9.20
2023-04-20T20:50:19.543Z,8.33
2023-04-20T20:52:46.902Z,9.27
2023-04-20T20:55:14.109Z,8.40
2023-04-20T20:57:41.658Z,8.57
2023-04-20T21:00:10.397Z,8.83
2023-04-20T21:02:38.071Z,8.03
2023-04-20T21:05:06.298Z,8.20
2023-04-20T21:07:33.478Z,8.37
2023-04-20T21:10:00.992Z,8.00
2023-04-20T21:12:28.252Z,8.93
2023-04-20T21:14:55.520Z,8.53
2023-04-20T21:17:22.744Z,8.23
2023-04-20T21:19:49.956Z,9.70
2023-04-20T21:22:17.366Z,9.60
2023-04-20T21:24:44.583Z,8.37
2023-04-20T21:27:11.931Z,8.53
2023-04-20T21:29:39.188Z,8.50
2023-04-20T21:32:06.404Z,9.20
2023-04-20T21:34:33.727Z,9.10
2023-04-20T21:37:04.191Z,8.87
2023-04-20T21:39:34.429Z,8.33
2023-04-20T21:42:03.240Z,9.30
2023-04-20T21:44:30.740Z,9.80
2023-04-20T21:46:58.009Z,9.53
2023-04-20T21:49:25.229Z,9.87
2023-04-20T21:51:52.383Z,9.33
2023-04-20T21:54:19.759Z,9.40
2023-04-20T21:56:47.004Z,9.17
2023-04-20T21:59:14.487Z,9.13
2023-04-20T22:01:42.039Z,10.00
2023-04-20T22:04:09.659Z,9.90
2023-04-20T22:06:37.054Z,9.47
2023-04-20T22:09:04.735Z,10.00
2023-04-20T22:11:36.392Z,9.50
2023-04-20T22:14:06.699Z,9.80
2023-04-20T22:16:34.009Z,10.10
2023-04-20T22:19:01.471Z,10.70
2023-04-20T22:21:28.794Z,9.90
2023-04-20T22:23:56.150Z,10.90
2023-04-20T22:26:23.394Z,11.57
2023-04-20T22:28:50.900Z,11.37
2023-04-20T22:31:18.147Z,11.80
2023-04-20T22:33:45.378Z,11.27
2023-04-20T22:36:13.195Z,10.23
2023-04-20T22:38:40.493Z,11.53
2023-04-20T22:41:07.758Z,10.87
2023-04-20T22:43:34.914Z,10.80
2023-04-20T22:46:02.098Z,11.83
2023-04-20T22:48:29.337Z,11.60
2023-04-20T22:51:00.716Z,11.67
2023-04-20T22:53:30.191Z,10.40
2023-04-20T22:56:04.559Z,11.57
2023-04-20T22:58:31.849Z,11.30
2023-04-20T23:00:59.502Z,11.53
2023-04-20T23:03:26.946Z,11.80
2023-04-20T23:05:57.284Z,10.97
2023-04-20T23:08:25.526Z,11.73
2023-04-20T23:10:56.186Z,11.20
2023-04-20T23:13:26.327Z,11.67
2023-04-20T23:15:53.821Z,12.43
2023-04-20T23:18:21.451Z,12.10
2023-04-20T23:20:48.648Z,11.27
2023-04-20T23:23:15.822Z,11.27
2023-04-20T23:25:43.015Z,10.73
2023-04-20T23:28:10.402Z,10.80
2023-04-20T23:30:37.867Z,11.10
2023-04-20T23:33:05.000Z,11.97
2023-04-20T23:35:32.837Z,11.47
2023-04-20T23:38:01.013Z,11.37
2023-04-20T23:40:28.323Z,11.13
2023-04-20T23:42:55.726Z,11.60
2023-04-20T23:45:23.161Z,12.33
2023-04-20T23:47:50.532Z,11.37
2023-04-20T23:50:17.785Z,11.77
2023-04-20T23:52:45.094Z,11.87
2023-04-20T23:55:12.257Z,12.03
2023-04-20T23:57:39.479Z,11.77
